Time;durP1;ratioP1;P1;durP2;ratioP2;P2;SDS_P1;SDS_P2;PMS_P1;PMS_P2;Temp;Humidity;BMP_temperature;BMP_pressure;BME280_temperature;BME280_humidity;BME280_pressure;Samples;Min_cycle;Max_cycle;Signal;HPM_P1;HPM_P2
2023/08/28 00:03:23;;;;;;;14.13;11.73;;;17.30;99.90;;;;;;10152400;29;20311;-84
2023/08/28 00:08:25;;;;;;;16.23;12.27;;;17.50;99.90;;;;;;10151784;29;20251;-83
2023/08/28 00:13:28;;;;;;;13.73;10.35;;;17.50;99.90;;;;;;10165258;29;20306;-83
2023/08/28 00:18:30;;;;;;;12.20;10.82;;;17.20;99.90;;;;;;10166604;29;20254;-83
2023/08/28 00:23:32;;;;;;;14.43;11.85;;;17.60;99.90;;;;;;10151323;29;20211;-84
2023/08/28 00:28:35;;;;;;;7.85;6.40;;;17.80;99.90;;;;;;10173650;29;20231;-84
2023/08/28 00:33:37;;;;;;;11.60;8.60;;;17.90;99.90;;;;;;10155179;29;20243;-84
2023/08/28 00:38:40;;;;;;;6.93;6.22;;;17.60;99.90;;;;;;10155719;29;20298;-83
2023/08/28 00:43:43;;;;;;;9.68;8.77;;;17.60;99.90;;;;;;10155417;29;20291;-84
2023/08/28 00:48:46;;;;;;;14.68;9.02;;;17.50;99.90;;;;;;10155161;29;20220;-84
2023/08/28 00:53:49;;;;;;;9.43;8.27;;;17.50;99.90;;;;;;10154702;29;20251;-84
2023/08/28 00:58:53;;;;;;;9.18;8.35;;;17.70;99.90;;;;;;10154981;29;20258;-84
2023/08/28 01:03:56;;;;;;;9.98;8.02;;;17.40;99.90;;;;;;10136132;29;20236;-84
2023/08/28 01:09:03;;;;;;;9.23;8.32;;;17.20;99.90;;;;;;10131343;29;20276;-83
2023/08/28 01:14:22;;;;;;;12.55;9.63;;;17.20;99.90;;;;;;10171930;29;20668;-83
2023/08/28 01:19:40;;;;;;;9.27;7.25;;;17.50;99.90;;;;;;10171390;29;20306;-84
2023/08/28 01:24:49;;;;;;;8.82;7.90;;;17.50;99.90;;;;;;10153631;29;20243;-84
2023/08/28 01:30:10;;;;;;;8.35;7.50;;;17.20;99.90;;;;;;10152946;29;20235;-84
2023/08/28 01:35:16;;;;;;;8.88;8.02;;;17.10;99.90;;;;;;10169916;29;20294;-84
2023/08/28 01:40:23;;;;;;;10.68;7.93;;;17.10;99.90;;;;;;10151315;29;20271;-84
2023/08/28 01:45:26;;;;;;;8.35;7.55;;;17.20;99.90;;;;;;10148483;29;20659;-84
2023/08/28 01:50:29;;;;;;;9.27;7.50;;;17.00;99.90;;;;;;10151959;29;20302;-83
2023/08/28 01:55:53;;;;;;;8.18;7.05;;;16.80;99.90;;;;;;10169566;29;20311;-84
2023/08/28 02:00:55;;;;;;;9.23;8.35;;;16.80;99.90;;;;;;10151435;29;20322;-84
2023/08/28 02:05:58;;;;;;;9.25;7.72;;;16.60;99.90;;;;;;10150788;29;20239;-84
2023/08/28 02:11:01;;;;;;;8.65;7.65;;;16.40;99.90;;;;;;10151963;29;20243;-84
2023/08/28 02:16:04;;;;;;;9.77;7.25;;;16.40;99.90;;;;;;10169170;29;20648;-84
2023/08/28 02:21:07;;;;;;;13.35;7.95;;;16.30;99.90;;;;;;10167192;29;20692;-84
2023/08/28 02:26:10;;;;;;;10.85;8.43;;;16.20;99.90;;;;;;10112631;29;20247;-84
2023/08/28 02:31:12;;;;;;;11.88;8.57;;;16.20;99.90;;;;;;10129427;29;20236;-84
2023/08/28 02:36:15;;;;;;;8.18;7.00;;;16.20;99.90;;;;;;10148355;29;20650;-83
2023/08/28 02:41:18;;;;;;;10.27;8.20;;;16.10;99.90;;;;;;10149353;29;20271;-83
2023/08/28 02:46:20;;;;;;;18.98;8.88;;;16.00;99.90;;;;;;10167532;29;20228;-83
2023/08/28 02:51:23;;;;;;;14.23;9.38;;;15.90;99.90;;;;;;10167376;29;20290;-83
2023/08/28 02:56:34;;;;;;;9.30;8.38;;;15.90;99.90;;;;;;10150013;29;20272;-84
2023/08/28 03:01:37;;;;;;;9.73;7.40;;;16.00;99.90;;;;;;10149742;29;20254;-83
2023/08/28 03:06:39;;;;;;;10.38;7.95;;;16.00;99.90;;;;;;10149854;29;20738;-84
2023/08/28 03:11:42;;;;;;;9.10;8.15;;;15.90;99.90;;;;;;10149791;29;20243;-84
2023/08/28 03:16:45;;;;;;;8.98;8.00;;;15.80;99.90;;;;;;10166395;29;20239;-84
2023/08/28 03:21:47;;;;;;;10.90;8.65;;;15.70;99.90;;;;;;10148872;29;20267;-84
2023/08/28 03:26:50;;;;;;;9.57;8.40;;;15.60;99.90;;;;;;10149795;29;20671;-84
2023/08/28 03:31:52;;;;;;;11.07;8.07;;;15.50;99.90;;;;;;10148253;29;20306;-84
2023/08/28 03:36:55;;;;;;;17.38;8.32;;;15.40;99.90;;;;;;10166695;29;20263;-84
2023/08/28 03:41:58;;;;;;;12.48;9.05;;;15.40;99.90;;;;;;10166117;29;20274;-83
2023/08/28 03:47:00;;;;;;;10.15;7.78;;;15.40;99.90;;;;;;10167059;29;20290;-84
2023/08/28 03:52:03;;;;;;;9.40;8.40;;;15.50;99.90;;;;;;10148311;29;20251;-83
2023/08/28 03:57:06;;;;;;;9.68;8.30;;;15.50;99.90;;;;;;10133591;29;20243;-84
2023/08/28 04:02:08;;;;;;;9.52;8.40;;;15.50;99.90;;;;;;10155378;29;20255;-84
2023/08/28 04:07:22;;;;;;;10.02;8.18;;;15.60;99.90;;;;;;10149778;29;20244;-84
2023/08/28 04:12:29;;;;;;;8.85;7.97;;;15.50;99.90;;;;;;10142621;29;20246;-84
2023/08/28 04:17:32;;;;;;;8.32;7.53;;;15.50;99.90;;;;;;10153744;29;20290;-84
2023/08/28 04:22:36;;;;;;;8.32;7.47;;;15.50;99.90;;;;;;10155141;29;20262;-84
2023/08/28 04:27:41;;;;;;;9.70;8.70;;;15.50;99.90;;;;;;10155904;29;20231;-84
2023/08/28 04:32:43;;;;;;;9.20;8.20;;;15.40;99.90;;;;;;10155150;29;20647;-84
2023/08/28 04:37:46;;;;;;;8.40;7.60;;;15.50;99.90;;;;;;10155344;29;20243;-84
2023/08/28 04:42:50;;;;;;;10.18;8.75;;;15.50;99.90;;;;;;10154097;29;20271;-84
2023/08/28 04:47:52;;;;;;;13.95;10.05;;;15.60;99.90;;;;;;10166628;29;20331;-84
2023/08/28 04:52:55;;;;;;;10.50;9.20;;;15.60;99.90;;;;;;10148801;29;20670;-84
2023/08/28 04:57:58;;;;;;;10.68;9.57;;;15.70;99.90;;;;;;10151905;29;20247;-84
2023/08/28 05:03:01;;;;;;;11.02;8.07;;;15.80;99.90;;;;;;10152906;29;20735;-84
2023/08/28 05:08:06;;;;;;;11.88;7.95;;;16.00;99.90;;;;;;10133408;29;20243;-83
2023/08/28 05:13:08;;;;;;;10.10;9.10;;;16.30;99.90;;;;;;10152816;29;20303;-85
2023/08/28 05:18:11;;;;;;;10.35;9.00;;;16.40;99.90;;;;;;10151785;29;20238;-84
2023/08/28 05:23:15;;;;;;;12.25;8.63;;;16.40;99.90;;;;;;10169862;29;20306;-84
2023/08/28 05:28:20;;;;;;;10.65;8.93;;;17.10;99.90;;;;;;10167921;29;20231;-84
2023/08/28 05:33:23;;;;;;;9.93;8.77;;;16.90;99.90;;;;;;10141657;29;20300;-84
2023/08/28 05:38:26;;;;;;;9.90;7.78;;;16.70;99.90;;;;;;10165092;29;20239;-84
2023/08/28 05:43:28;;;;;;;11.13;8.93;;;16.70;99.90;;;;;;10149204;29;20685;-84
2023/08/28 05:48:31;;;;;;;7.63;6.93;;;16.80;99.90;;;;;;10121637;29;20290;-84
2023/08/28 05:53:35;;;;;;;11.70;9.35;;;16.80;99.90;;;;;;10119801;29;20248;-84
2023/08/28 05:58:37;;;;;;;13.13;9.93;;;16.80;99.90;;;;;;10110675;29;20240;-84
2023/08/28 06:03:40;;;;;;;8.43;7.63;;;16.80;99.90;;;;;;10113044;29;20730;-84
2023/08/28 06:08:44;;;;;;;7.55;6.78;;;16.80;99.90;;;;;;10111141;29;20240;-84
2023/08/28 06:13:47;;;;;;;7.90;6.78;;;16.70;99.90;;;;;;10128548;29;20236;-84
2023/08/28 06:18:49;;;;;;;10.85;8.30;;;17.10;99.90;;;;;;10127069;29;20279;-84
2023/08/28 06:23:55;;;;;;;9.77;7.63;;;16.90;99.90;;;;;;10125888;29;20715;-84
2023/08/28 06:29:00;;;;;;;11.73;8.35;;;16.70;99.90;;;;;;10111788;29;20228;-83
2023/08/28 06:34:04;;;;;;;10.10;6.68;;;16.80;99.90;;;;;;10125702;29;20240;-83
2023/08/28 06:39:07;;;;;;;6.80;6.20;;;17.10;99.90;;;;;;10127333;29;20252;-84
2023/08/28 06:44:09;;;;;;;7.47;6.65;;;17.40;99.90;;;;;;10126326;29;20275;-84
2023/08/28 06:49:13;;;;;;;7.47;6.78;;;17.70;99.90;;;;;;10126338;29;20227;-83
2023/08/28 06:54:15;;;;;;;7.28;6.05;;;17.60;99.90;;;;;;10124833;29;20645;-85
2023/08/28 06:59:18;;;;;;;6.88;6.28;;;17.70;99.90;;;;;;10125592;29;20291;-83
2023/08/28 07:04:20;;;;;;;8.48;6.75;;;17.80;99.90;;;;;;10127514;29;20707;-83
2023/08/28 07:09:24;;;;;;;8.73;7.00;;;17.70;99.90;;;;;;10127240;29;20642;-83
2023/08/28 07:14:26;;;;;;;11.18;8.10;;;17.70;99.90;;;;;;10109444;29;20263;-83
2023/08/28 07:19:29;;;;;;;11.45;7.85;;;17.90;99.90;;;;;;10128868;29;20755;-83
2023/08/28 07:24:31;;;;;;;9.57;6.72;;;18.00;99.90;;;;;;10126372;29;20255;-83
2023/08/28 07:29:34;;;;;;;6.45;5.88;;;18.60;99.90;;;;;;10109971;29;20304;-84
2023/08/28 07:34:36;;;;;;;6.75;5.10;;;18.70;99.90;;;;;;10125282;29;20231;-86
2023/08/28 07:39:39;;;;;;;6.95;5.38;;;19.20;99.90;;;;;;10135022;29;20299;-86
2023/08/28 07:44:41;;;;;;;5.95;5.07;;;19.40;99.90;;;;;;10134998;29;20252;-86
2023/08/28 07:49:44;;;;;;;5.53;4.20;;;19.30;99.90;;;;;;10133408;29;20232;-87
2023/08/28 07:54:47;;;;;;;6.57;4.50;;;19.30;99.90;;;;;;10125766;29;20291;-85
2023/08/28 07:59:50;;;;;;;5.40;4.90;;;19.50;99.90;;;;;;10132868;29;20240;-88
2023/08/28 08:04:52;;;;;;;4.47;3.38;;;19.50;99.90;;;;;;10116883;29;20299;-86
2023/08/28 08:09:55;;;;;;;5.00;4.50;;;19.50;99.90;;;;;;10132253;29;20236;-86
2023/08/28 08:14:57;;;;;;;4.68;3.42;;;19.50;99.90;;;;;;10131663;29;20284;-85
2023/08/28 08:20:00;;;;;;;5.13;4.38;;;19.40;99.90;;;;;;10100536;29;20319;-87
2023/08/28 08:25:03;;;;;;;5.82;4.38;;;19.60;99.90;;;;;;10133067;29;20711;-86
2023/08/28 08:30:08;;;;;;;3.60;3.30;;;19.60;99.90;;;;;;10116341;29;20244;-87
2023/08/28 08:35:12;;;;;;;4.05;3.40;;;19.60;99.90;;;;;;10132796;29;20292;-87
2023/08/28 08:40:23;;;;;;;4.68;4.28;;;19.80;99.90;;;;;;10115673;29;20327;-86
2023/08/28 08:45:29;;;;;;;4.10;2.47;;;19.80;99.90;;;;;;10128752;29;20239;-86
2023/08/28 08:50:35;;;;;;;3.47;2.60;;;19.90;98.80;;;;;;10131718;29;20809;-87
2023/08/28 08:55:46;;;;;;;3.92;1.75;;;19.90;97.40;;;;;;10112835;29;20307;-87
2023/08/28 09:00:50;;;;;;;2.95;2.05;;;19.80;96.50;;;;;;10131549;29;20260;-86
2023/08/28 09:05:53;;;;;;;3.05;1.63;;;19.80;95.90;;;;;;10131984;29;20243;-84
2023/08/28 09:11:04;;;;;;;3.60;1.80;;;19.70;93.30;;;;;;10132132;29;20240;-86
2023/08/28 09:16:07;;;;;;;3.95;2.00;;;19.70;91.80;;;;;;10113746;29;20248;-87
2023/08/28 09:21:11;;;;;;;3.42;2.00;;;19.70;94.30;;;;;;10127235;29;20730;-87
2023/08/28 09:26:23;;;;;;;3.75;1.70;;;19.70;93.20;;;;;;10130584;29;20232;-85
2023/08/28 09:31:30;;;;;;;2.10;1.60;;;19.80;93.70;;;;;;10130950;29;20236;-86
2023/08/28 09:36:35;;;;;;;2.30;1.85;;;19.60;93.90;;;;;;10113061;29;20256;-86
2023/08/28 09:41:46;;;;;;;3.42;2.53;;;19.50;94.30;;;;;;10130379;29;20275;-85
2023/08/28 09:46:51;;;;;;;3.70;2.40;;;19.50;96.40;;;;;;10128091;29;20239;-85
2023/08/28 09:51:59;;;;;;;4.60;2.30;;;19.40;96.90;;;;;;10129359;29;20753;-85
2023/08/28 09:57:14;;;;;;;3.38;2.80;;;19.30;98.60;;;;;;10129076;29;20239;-85
2023/08/28 10:02:21;;;;;;;3.72;2.63;;;19.40;99.50;;;;;;10112636;29;20303;-85
2023/08/28 10:07:25;;;;;;;3.70;1.90;;;19.40;97.90;;;;;;10128958;29;20236;-86
2023/08/28 10:12:29;;;;;;;3.80;1.85;;;19.60;98.20;;;;;;10109967;29;20755;-86
2023/08/28 10:17:33;;;;;;;3.30;1.65;;;19.50;97.90;;;;;;10106742;29;20244;-85
2023/08/28 10:22:37;;;;;;;2.97;2.00;;;19.60;99.40;;;;;;10119301;29;20315;-85
2023/08/28 10:27:40;;;;;;;1.77;1.60;;;19.60;97.70;;;;;;10128270;29;20287;-85
2023/08/28 10:32:44;;;;;;;2.13;1.70;;;19.60;98.20;;;;;;10111126;29;20303;-86
2023/08/28 10:37:47;;;;;;;6.75;1.92;;;19.60;95.90;;;;;;10126530;29;20632;-85
2023/08/28 10:42:51;;;;;;;2.10;1.73;;;19.60;95.80;;;;;;10128513;29;20702;-86
2023/08/28 10:47:54;;;;;;;3.65;1.80;;;19.60;94.60;;;;;;10127989;29;20268;-84
2023/08/28 10:52:59;;;;;;;4.30;2.25;;;19.50;95.50;;;;;;10126191;29;20823;-86
2023/08/28 10:58:05;;;;;;;3.05;1.60;;;19.40;95.40;;;;;;10126964;29;20231;-85
2023/08/28 11:03:15;;;;;;;3.22;1.50;;;19.30;96.00;;;;;;10110672;29;20263;-85
2023/08/28 11:08:18;;;;;;;4.45;2.50;;;19.10;95.90;;;;;;10126602;29;20239;-83
2023/08/28 11:13:23;;;;;;;1.35;1.25;;;19.00;96.20;;;;;;10126944;29;20232;-83
2023/08/28 11:18:27;;;;;;;3.50;1.40;;;19.10;96.50;;;;;;10126905;29;20292;-83
2023/08/28 11:23:36;;;;;;;2.88;1.85;;;19.00;96.70;;;;;;10125949;29;20280;-84
2023/08/28 11:28:47;;;;;;;3.38;2.20;;;18.90;98.00;;;;;;10127318;29;20295;-83
2023/08/28 11:33:49;;;;;;;4.97;2.30;;;18.90;98.20;;;;;;10108924;29;20235;-84
2023/08/28 11:38:55;;;;;;;2.33;2.00;;;18.80;99.00;;;;;;10109450;29;20366;-83
2023/08/28 11:43:58;;;;;;;2.95;2.38;;;18.60;99.90;;;;;;10126657;29;20260;-84
2023/08/28 11:49:05;;;;;;;3.33;2.20;;;18.40;99.90;;;;;;10125736;29;20236;-85
2023/08/28 11:54:08;;;;;;;3.78;2.65;;;18.40;99.90;;;;;;10124374;29;20303;-85
2023/08/28 11:59:10;;;;;;;4.10;2.58;;;18.40;99.90;;;;;;10108609;29;20308;-84
2023/08/28 12:04:13;;;;;;;5.35;2.60;;;18.30;99.90;;;;;;10125410;29;20264;-84
2023/08/28 12:09:16;;;;;;;1.83;1.70;;;18.20;99.90;;;;;;10126465;29;20243;-84
2023/08/28 12:14:20;;;;;;;2.78;1.33;;;18.20;99.90;;;;;;10125470;29;20232;-83
2023/08/28 12:19:22;;;;;;;2.25;1.60;;;18.20;99.90;;;;;;10126865;29;20640;-83
2023/08/28 12:24:26;;;;;;;3.30;1.67;;;18.20;98.80;;;;;;10132654;29;20260;-83
2023/08/28 12:29:29;;;;;;;3.58;1.20;;;18.30;98.90;;;;;;10133474;29;20696;-83
2023/08/28 12:34:33;;;;;;;2.25;1.58;;;18.40;99.20;;;;;;10133076;29;20291;-84
2023/08/28 12:39:36;;;;;;;1.98;1.83;;;18.40;98.60;;;;;;10131934;29;20243;-85
2023/08/28 12:44:44;;;;;;;3.72;1.98;;;18.40;97.80;;;;;;10132629;29;20660;-83
2023/08/28 12:49:49;;;;;;;2.63;2.03;;;18.30;99.90;;;;;;10132178;29;20236;-85
2023/08/28 12:54:51;;;;;;;4.45;2.60;;;18.20;99.90;;;;;;10132505;29;20279;-84
2023/08/28 12:59:54;;;;;;;5.20;2.42;;;18.30;99.90;;;;;;10130120;29;20279;-84
2023/08/28 13:04:56;;;;;;;5.90;2.10;;;18.50;99.50;;;;;;10131953;29;20657;-84
2023/08/28 13:09:59;;;;;;;2.22;2.03;;;18.70;99.40;;;;;;10124462;29;20683;-87
2023/08/28 13:15:04;;;;;;;4.03;2.70;;;19.00;99.90;;;;;;10094646;29;20308;-87
2023/08/28 13:20:20;;;;;;;2.20;1.95;;;19.30;98.30;;;;;;10092074;29;20301;-87
2023/08/28 13:25:22;;;;;;;4.45;1.73;;;19.40;96.40;;;;;;10091981;29;20277;-87
2023/08/28 13:30:25;;;;;;;2.55;2.08;;;19.50;95.40;;;;;;10075802;29;20241;-87
2023/08/28 13:35:28;;;;;;;2.42;2.22;;;19.60;95.90;;;;;;10092620;29;20237;-87
2023/08/28 13:40:31;;;;;;;4.70;2.40;;;19.50;95.10;;;;;;10092718;29;20638;-88
2023/08/28 13:45:33;;;;;;;2.97;2.67;;;19.20;95.70;;;;;;10091006;29;20732;-87
2023/08/28 13:50:37;;;;;;;5.25;3.25;;;19.00;96.50;;;;;;10091961;29;20304;-88
2023/08/28 13:55:39;;;;;;;2.78;2.47;;;19.00;96.20;;;;;;10092048;29;20240;-87
2023/08/28 14:00:46;;;;;;;4.57;2.22;;;18.70;96.30;;;;;;10092818;29;20209;-88
2023/08/28 14:05:50;;;;;;;4.00;1.85;;;18.50;97.90;;;;;;10091672;29;20666;-87
2023/08/28 14:10:53;;;;;;;2.90;2.35;;;18.30;97.50;;;;;;10125626;29;20275;-88
2023/08/28 14:15:55;;;;;;;2.28;1.70;;;18.10;98.50;;;;;;10113247;29;20247;-87
2023/08/28 14:20:58;;;;;;;2.10;1.95;;;;;;;;;;10130149;29;20228;-87
2023/08/28 14:26:02;;;;;;;2.10;1.90;;;17.90;99.90;;;;;;10129918;29;20259;-88
2023/08/28 14:31:05;;;;;;;6.43;2.65;;;17.80;99.90;;;;;;10129213;29;20268;-87
2023/08/28 14:36:08;;;;;;;3.60;2.50;;;17.70;99.90;;;;;;10130222;29;20402;-88
2023/08/28 14:41:10;;;;;;;3.72;2.38;;;17.60;99.90;;;;;;10129017;29;20333;-88
2023/08/28 14:46:13;;;;;;;2.58;2.13;;;17.50;99.90;;;;;;10127987;29;20823;-89
2023/08/28 14:51:18;;;;;;;2.53;2.22;;;17.40;99.90;;;;;;10129017;29;20303;-89
2023/08/28 14:56:25;;;;;;;5.35;2.88;;;17.40;99.90;;;;;;10129609;29;20907;-89
2023/08/28 15:01:28;;;;;;;5.88;2.30;;;17.20;99.90;;;;;;10128619;29;20713;-89
2023/08/28 15:06:30;;;;;;;4.88;2.10;;;17.10;99.90;;;;;;10127994;29;20231;-85
2023/08/28 15:11:33;;;;;;;3.17;2.20;;;17.40;99.90;;;;;;10126253;29;20228;-87
2023/08/28 15:16:39;;;;;;;2.78;2.10;;;17.60;99.90;;;;;;10129104;29;20287;-88
2023/08/28 15:21:41;;;;;;;3.70;2.33;;;17.50;99.90;;;;;;10128488;29;20291;-88
2023/08/28 15:26:44;;;;;;;4.00;2.53;;;17.30;99.90;;;;;;10128715;29;20299;-90
2023/08/28 15:31:49;;;;;;;3.50;3.00;;;17.20;99.90;;;;;;10127793;29;20244;-88
2023/08/28 15:36:52;;;;;;;7.47;2.80;;;17.20;99.90;;;;;;10127752;29;20295;-88
2023/08/28 15:41:55;;;;;;;3.20;2.90;;;17.00;99.90;;;;;;10123538;29;20339;-86
2023/08/28 15:46:57;;;;;;;4.80;3.30;;;17.20;99.90;;;;;;10124677;29;20295;-90
2023/08/28 15:52:00;;;;;;;4.78;3.30;;;17.00;99.90;;;;;;10113029;29;20244;-87
2023/08/28 15:57:02;;;;;;;3.75;3.45;;;16.80;99.90;;;;;;10128619;29;20239;-86
2023/08/28 16:02:05;;;;;;;6.95;3.45;;;16.70;99.90;;;;;;10130281;29;20332;-85
2023/08/28 16:07:09;;;;;;;4.72;3.55;;;16.60;99.90;;;;;;10131378;29;20241;-86
2023/08/28 16:12:12;;;;;;;4.65;3.97;;;16.60;99.90;;;;;;10108427;29;20244;-86
2023/08/28 16:17:15;;;;;;;6.35;3.55;;;16.60;99.90;;;;;;10129203;29;20287;-85
2023/08/28 16:22:17;;;;;;;6.40;4.25;;;16.60;99.90;;;;;;10131519;29;20711;-86
2023/08/28 16:27:20;;;;;;;6.10;4.55;;;16.50;99.90;;;;;;10133873;29;20280;-85
2023/08/28 16:32:22;;;;;;;6.68;4.28;;;16.40;99.90;;;;;;10131504;29;20611;-87
2023/08/28 16:37:25;;;;;;;5.47;4.72;;;16.40;99.90;;;;;;10117406;29;20239;-87
2023/08/28 16:42:28;;;;;;;4.63;4.22;;;16.50;99.90;;;;;;10132856;29;20271;-88
2023/08/28 16:47:30;;;;;;;4.55;4.15;;;16.50;99.90;;;;;;9455852;29;10000738;-90
2023/08/28 16:52:33;;;;;;;4.38;4.03;;;16.50;99.90;;;;;;10094598;29;20714;-87
2023/08/28 16:57:36;;;;;;;2.80;2.60;;;16.60;99.90;;;;;;10126271;29;20240;-87
2023/08/28 17:02:39;;;;;;;5.65;2.58;;;16.40;99.90;;;;;;10113691;29;20311;-87
2023/08/28 17:07:41;;;;;;;3.33;1.73;;;16.20;99.90;;;;;;10089723;29;20240;-87
2023/08/28 17:12:44;;;;;;;2.60;1.48;;;16.10;99.90;;;;;;10090324;29;20296;-87
2023/08/28 17:17:46;;;;;;;0.85;0.77;;;15.90;99.90;;;;;;10103825;29;20307;-86
2023/08/28 17:22:49;;;;;;;1.23;0.98;;;15.70;99.90;;;;;;10127769;29;20631;-87
2023/08/28 17:27:51;;;;;;;0.93;0.77;;;15.50;99.90;;;;;;10125297;29;20235;-88
2023/08/28 17:32:55;;;;;;;2.30;1.05;;;15.40;99.90;;;;;;10125359;29;20295;-87
2023/08/28 17:38:00;;;;;;;1.73;1.00;;;15.40;99.90;;;;;;10124540;29;20303;-88
2023/08/28 17:43:03;;;;;;;1.92;1.00;;;15.30;99.90;;;;;;10126839;29;20678;-88
2023/08/28 17:48:07;;;;;;;2.72;0.70;;;15.20;99.90;;;;;;10126516;29;20531;-87
2023/08/28 17:53:10;;;;;;;1.88;0.73;;;15.00;99.90;;;;;;10126737;29;20645;-88
2023/08/28 17:58:13;;;;;;;0.80;0.70;;;14.90;99.90;;;;;;10125134;29;20291;-88
2023/08/28 18:03:16;;;;;;;1.35;0.90;;;14.90;99.90;;;;;;10124687;29;20303;-88
2023/08/28 18:08:38;;;;;;;1.30;1.00;;;14.90;99.90;;;;;;10125303;29;20314;-87
2023/08/28 18:13:41;;;;;;;1.52;1.02;;;14.70;99.90;;;;;;10125580;29;20237;-87
2023/08/28 18:18:46;;;;;;;1.77;0.75;;;14.60;99.90;;;;;;10123811;29;20268;-88
2023/08/28 18:23:51;;;;;;;1.77;1.45;;;14.60;99.90;;;;;;10124239;29;20311;-87
2023/08/28 18:28:54;;;;;;;1.35;1.02;;;14.60;99.90;;;;;;10124503;29;20283;-87
2023/08/28 18:33:57;;;;;;;2.60;0.90;;;14.60;99.90;;;;;;10125190;29;20295;-86
2023/08/28 18:39:00;;;;;;;2.72;1.05;;;14.60;99.90;;;;;;10124281;29;20709;-85
2023/08/28 18:44:02;;;;;;;1.85;1.00;;;14.40;99.90;;;;;;10120166;29;20332;-86
2023/08/28 18:49:05;;;;;;;4.22;1.15;;;14.40;99.90;;;;;;10124088;29;20410;-87
2023/08/28 18:54:07;;;;;;;1.40;0.90;;;14.40;99.90;;;;;;10128841;29;20264;-87
2023/08/28 18:59:10;;;;;;;1.23;1.02;;;14.50;99.90;;;;;;10125597;29;20228;-86
2023/08/28 19:04:12;;;;;;;1.70;0.82;;;14.50;99.90;;;;;;10127653;29;20307;-86
2023/08/28 19:09:15;;;;;;;3.05;1.27;;;14.50;99.90;;;;;;10109288;29;20260;-88
2023/08/28 19:14:17;;;;;;;1.50;1.10;;;14.50;99.90;;;;;;10132262;29;20760;-86
2023/08/28 19:19:20;;;;;;;1.15;1.05;;;14.50;99.90;;;;;;10124000;29;20247;-87
2023/08/28 19:24:22;;;;;;;1.42;1.20;;;14.50;99.90;;;;;;10125189;29;20259;-87
2023/08/28 19:29:27;;;;;;;4.00;1.50;;;14.40;99.90;;;;;;10110242;29;20655;-86
2023/08/28 19:34:30;;;;;;;2.88;1.35;;;14.40;99.90;;;;;;10136485;29;20637;-86
2023/08/28 19:39:32;;;;;;;1.80;1.55;;;14.40;99.90;;;;;;9799048;29;10000126;-86
2023/08/28 19:44:35;;;;;;;2.22;1.80;;;14.40;99.90;;;;;;10132104;29;20608;-86
2023/08/28 19:49:37;;;;;;;1.38;1.27;;;14.50;99.90;;;;;;10135093;29;20256;-86
2023/08/28 19:54:44;;;;;;;1.98;1.70;;;14.50;99.90;;;;;;10135430;29;20707;-86
2023/08/28 19:59:47;;;;;;;3.60;2.45;;;14.40;99.90;;;;;;10133443;29;20244;-85
2023/08/28 20:04:49;;;;;;;2.50;2.28;;;14.40;99.90;;;;;;10134546;29;20671;-85
2023/08/28 20:09:52;;;;;;;2.83;2.00;;;14.40;99.90;;;;;;10134510;29;20256;-86
2023/08/28 20:14:55;;;;;;;3.20;2.90;;;14.40;99.90;;;;;;10133301;29;20658;-87
2023/08/28 20:19:57;;;;;;;3.45;2.55;;;14.40;99.90;;;;;;10138285;29;20244;-86
2023/08/28 20:25:00;;;;;;;3.20;3.00;;;14.40;99.90;;;;;;10139036;29;20268;-87
2023/08/28 20:30:04;;;;;;;4.88;3.13;;;14.40;99.90;;;;;;10139400;29;20236;-87
2023/08/28 20:35:08;;;;;;;4.43;3.03;;;14.40;99.90;;;;;;10136937;29;20637;-88
2023/08/28 20:40:14;;;;;;;3.95;3.30;;;14.40;99.90;;;;;;10119427;29;20751;-88
2023/08/28 20:45:17;;;;;;;3.80;2.63;;;14.40;99.90;;;;;;10132927;29;20656;-88
2023/08/28 20:50:20;;;;;;;4.55;3.20;;;14.40;99.90;;;;;;10131392;29;20300;-88
2023/08/28 20:55:23;;;;;;;3.03;2.72;;;14.30;99.90;;;;;;10112061;29;20240;-87
2023/08/28 21:00:25;;;;;;;3.55;3.25;;;14.30;99.90;;;;;;10112893;29;20651;-89
2023/08/28 21:05:28;;;;;;;3.58;3.28;;;14.30;99.90;;;;;;10117814;29;20637;-88
2023/08/28 21:10:31;;;;;;;3.70;3.30;;;14.30;99.90;;;;;;10116373;29;20236;-87
2023/08/28 21:15:34;;;;;;;5.60;4.03;;;14.40;99.90;;;;;;10131116;29;20228;-88
2023/08/28 21:20:42;;;;;;;4.88;3.80;;;14.40;99.90;;;;;;10131154;29;20311;-89
2023/08/28 21:25:46;;;;;;;5.10;4.20;;;14.40;99.90;;;;;;10119076;29;20658;-91
2023/08/28 21:31:06;;;;;;;4.97;4.00;;;14.40;99.90;;;;;;10127355;29;20241;-90
2023/08/28 21:36:09;;;;;;;5.82;4.03;;;14.30;99.90;;;;;;10116292;29;20232;-90
2023/08/28 21:41:11;;;;;;;5.75;5.25;;;14.30;99.90;;;;;;10125173;29;20331;-88
2023/08/28 21:46:14;;;;;;;6.32;4.63;;;14.40;99.90;;;;;;10124821;29;20300;-88
2023/08/28 21:51:16;;;;;;;7.28;6.40;;;14.40;99.90;;;;;;10144309;29;20770;-87
2023/08/28 21:56:38;;;;;;;7.50;5.82;;;14.40;99.90;;;;;;10122400;29;20247;-89
2023/08/28 22:01:59;;;;;;;5.00;4.60;;;14.30;99.90;;;;;;10091720;29;20236;-88
2023/08/28 22:07:20;;;;;;;4.45;4.07;;;14.30;99.90;;;;;;10123543;29;20263;-88
2023/08/28 22:12:53;;;;;;;5.38;4.88;;;14.30;99.90;;;;;;10119002;29;20276;-89
2023/08/28 22:18:05;;;;;;;6.78;5.20;;;14.30;99.90;;;;;;10117755;29;20300;-89
2023/08/28 22:23:09;;;;;;;4.88;3.85;;;14.40;99.90;;;;;;10094385;29;20297;-89
2023/08/28 22:28:13;;;;;;;4.05;3.75;;;14.40;99.90;;;;;;10111871;29;20300;-90
2023/08/28 22:33:15;;;;;;;3.90;3.50;;;14.40;99.90;;;;;;10092612;29;20223;-89
2023/08/28 22:38:19;;;;;;;5.72;3.40;;;14.40;99.90;;;;;;10107058;29;20271;-89
2023/08/28 22:43:21;;;;;;;5.10;3.33;;;14.40;99.90;;;;;;10101784;29;20264;-88
2023/08/28 22:48:24;;;;;;;3.65;3.30;;;14.40;99.90;;;;;;10128570;29;20616;-88
2023/08/28 22:53:26;;;;;;;3.97;3.20;;;14.30;99.90;;;;;;10096579;29;20244;-88
2023/08/28 22:58:29;;;;;;;3.58;3.25;;;14.30;99.90;;;;;;10129593;29;20236;-88
2023/08/28 23:03:31;;;;;;;3.72;3.42;;;14.30;99.90;;;;;;10128847;29;20228;-88
2023/08/28 23:08:34;;;;;;;3.42;3.05;;;14.30;99.90;;;;;;10127011;29;20639;-88
2023/08/28 23:13:37;;;;;;;3.75;3.45;;;14.40;99.90;;;;;;10128837;29;20232;-88
2023/08/28 23:18:39;;;;;;;4.38;3.50;;;14.40;99.90;;;;;;10127000;29;20690;-88
2023/08/28 23:23:42;;;;;;;3.90;3.50;;;14.40;99.90;;;;;;10128512;29;20235;-88
2023/08/28 23:28:44;;;;;;;4.10;3.70;;;14.40;99.90;;;;;;10128285;29;20295;-88
2023/08/28 23:33:47;;;;;;;5.38;3.58;;;14.40;99.90;;;;;;10125403;29;20589;-86
2023/08/28 23:38:49;;;;;;;5.05;3.90;;;14.40;99.90;;;;;;10111733;29;20260;-88
2023/08/28 23:43:52;;;;;;;4.78;4.38;;;14.40;99.90;;;;;;10127485;29;20303;-89
2023/08/28 23:48:55;;;;;;;5.10;4.70;;;14.50;99.90;;;;;;10127157;29;20239;-88
2023/08/28 23:53:57;;;;;;;5.30;4.80;;;14.40;99.90;;;;;;10126519;29;20268;-88
2023/08/28 23:59:00;;;;;;;5.95;4.60;;;14.40;99.90;;;;;;10123716;29;20240;-88
